createdAt,value
2022-08-21T00:00:22.195Z,98637.47
2022-08-21T00:02:26.294Z,98637.47
2022-08-21T00:04:29.502Z,98636.66
2022-08-21T00:06:32.160Z,98643.03
2022-08-21T00:08:33.930Z,98638.63
2022-08-21T00:10:35.952Z,98633.09
2022-08-21T00:12:38.135Z,98635.34
2022-08-21T00:14:39.839Z,98637.31
2022-08-21T00:16:42.090Z,98642.06
2022-08-21T00:18:43.658Z,98633.72
2022-08-21T00:20:46.482Z,98631.25
2022-08-21T00:22:48.598Z,98628.00
2022-08-21T00:24:50.667Z,98634.38
2022-08-21T00:26:52.979Z,98626.38
2022-08-21T00:28:54.657Z,98618.34
2022-08-21T00:30:57.708Z,98622.28
2022-08-21T00:33:00.793Z,98610.66
2022-08-21T00:35:02.430Z,98608.22
2022-08-21T00:37:04.058Z,98624.06
2022-08-21T00:39:08.394Z,98621.63
2022-08-21T00:41:20.983Z,98626.34
2022-08-21T00:43:36.062Z,98631.41
2022-08-21T00:45:38.531Z,98625.00
2022-08-21T00:47:40.424Z,98621.41
2022-08-21T00:49:42.734Z,98616.97
2022-08-21T00:51:51.373Z,98604.56
2022-08-21T00:53:58.039Z,98610.94
2022-08-21T00:56:03.383Z,98606.84
2022-08-21T00:58:09.245Z,98611.56
2022-08-21T01:00:16.148Z,98603.59
2022-08-21T01:02:19.582Z,98608.31
2022-08-21T01:04:23.209Z,98607.50
2022-08-21T01:06:25.047Z,98606.69
2022-08-21T01:08:28.648Z,98610.59
2022-08-21T01:10:30.362Z,98608.94
2022-08-21T01:12:33.701Z,98601.78
2022-08-21T01:14:40.124Z,98610.13
2022-08-21T01:16:45.132Z,98615.16
2022-08-21T01:18:48.788Z,98607.16
2022-08-21T01:21:12.758Z,98607.00
2022-08-21T01:23:15.101Z,98601.75
2022-08-21T01:25:18.279Z,98604.53
2022-08-21T01:27:19.995Z,98612.03
2022-08-21T01:29:48.256Z,98602.72
2022-08-21T01:31:50.098Z,98597.50
2022-08-21T01:33:52.082Z,98596.69
2022-08-21T01:35:53.744Z,98598.63
2022-08-21T01:37:55.460Z,98597.31
2022-08-21T01:39:57.366Z,98596.00
2022-08-21T01:41:59.001Z,98597.97
2022-08-21T01:44:00.528Z,98601.56
2022-08-21T01:46:04.437Z,98604.66
2022-08-21T01:48:06.145Z,98599.13
2022-08-21T01:50:12.276Z,98606.13
2022-08-21T01:52:14.296Z,98600.88
2022-08-21T01:54:16.027Z,98598.94
2022-08-21T01:56:18.315Z,98595.31
2022-08-21T01:58:20.305Z,98599.56
2022-08-21T02:00:26.068Z,98595.66
2022-08-21T02:02:27.775Z,98594.84
2022-08-21T02:04:29.460Z,98594.34
2022-08-21T02:06:31.094Z,98596.63
2022-08-21T02:08:32.928Z,98599.41
2022-08-21T02:10:35.155Z,98598.56
2022-08-21T02:12:36.865Z,98593.34
2022-08-21T02:14:38.546Z,98597.25
2022-08-21T02:16:40.871Z,98591.22
2022-08-21T02:18:42.806Z,98595.63
2022-08-21T02:20:48.578Z,98599.53
2022-08-21T02:22:57.158Z,98605.41
2022-08-21T02:24:58.963Z,98601.81
2022-08-21T02:27:00.615Z,98601.00
2022-08-21T02:29:02.493Z,98595.75
2022-08-21T02:31:05.550Z,98590.22
2022-08-21T02:33:08.555Z,98601.31
2022-08-21T02:35:11.175Z,98599.34
2022-08-21T02:37:13.573Z,98602.13
2022-08-21T02:39:15.118Z,98609.63
2022-08-21T02:41:20.460Z,98598.53
2022-08-21T02:43:24.798Z,98596.59
2022-08-21T02:45:29.929Z,98606.84
2022-08-21T02:47:31.655Z,98598.53
2022-08-21T02:49:33.366Z,98610.44
2022-08-21T02:51:34.961Z,98603.59
2022-08-21T02:53:36.886Z,98603.59
2022-08-21T02:55:39.002Z,98609.13
2022-08-21T02:57:40.604Z,98602.75
2022-08-21T02:59:45.375Z,98606.69
2022-08-21T03:01:47.109Z,98600.00
2022-08-21T03:03:52.153Z,98596.41
2022-08-21T03:05:54.227Z,98603.09
2022-08-21T03:07:56.130Z,98593.94
2022-08-21T03:09:57.652Z,98598.69
2022-08-21T03:11:59.506Z,98597.56
2022-08-21T03:14:01.125Z,98600.31
2022-08-21T03:16:02.992Z,98597.56
2022-08-21T03:18:07.850Z,98596.72
2022-08-21T03:20:10.489Z,98594.78
2022-08-21T03:22:12.246Z,98602.75
2022-08-21T03:24:13.871Z,98603.91
2022-08-21T03:26:15.564Z,98596.41
2022-08-21T03:28:22.471Z,98597.56
2022-08-21T03:30:24.169Z,98603.91
2022-08-21T03:32:25.722Z,98592.50
2022-08-21T03:34:27.282Z,98598.03
2022-08-21T03:36:28.899Z,98597.22
2022-08-21T03:38:32.360Z,98602.75
2022-08-21T03:40:34.861Z,98598.88
2022-08-21T03:42:36.642Z,98602.75
2022-08-21T03:44:38.578Z,98593.63
2022-08-21T03:46:41.179Z,98597.22
2022-08-21T03:48:42.939Z,98604.72
2022-08-21T03:50:45.986Z,98593.63
2022-08-21T03:52:47.375Z,98601.94
2022-08-21T03:54:48.958Z,98609.97
2022-08-21T03:56:50.608Z,98613.03
2022-08-21T03:58:52.385Z,98607.47
2022-08-21T04:00:58.396Z,98602.75
2022-08-21T04:03:00.214Z,98600.31
2022-08-21T04:05:01.850Z,98604.72
2022-08-21T04:07:04.538Z,98606.34
2022-08-21T04:09:06.210Z,98608.63
2022-08-21T04:11:08.574Z,98613.03
2022-08-21T04:13:10.106Z,98608.31
2022-08-21T04:15:11.901Z,98613.03
2022-08-21T04:17:13.439Z,98610.59
2022-08-21T04:19:15.410Z,98615.00
2022-08-21T04:21:17.143Z,98622.19
2022-08-21T04:23:23.517Z,98623.00
2022-08-21T04:25:28.397Z,98625.28
2022-08-21T04:27:29.960Z,98624.94
2022-08-21T04:29:31.490Z,98636.88
2022-08-21T04:31:34.659Z,98628.06
2022-08-21T04:33:36.296Z,98624.13
2022-08-21T04:35:38.104Z,98636.03
2022-08-21T04:37:42.028Z,98636.88
2022-08-21T04:39:44.054Z,98638.00
2022-08-21T04:41:45.624Z,98636.03
2022-08-21T04:43:47.540Z,98640.75
2022-08-21T04:45:50.264Z,98639.16
2022-08-21T04:47:54.011Z,98644.34
2022-08-21T04:49:55.538Z,98647.13
2022-08-21T04:51:57.206Z,98644.34
2022-08-21T04:54:11.942Z,98644.69
2022-08-21T04:56:26.976Z,98655.78
2022-08-21T04:58:29.762Z,98650.72
2022-08-21T05:00:31.419Z,98659.38
2022-08-21T05:02:34.069Z,98657.09
2022-08-21T05:04:40.508Z,98658.22
2022-08-21T05:06:45.282Z,98653.50
2022-08-21T05:08:49.588Z,98655.44
2022-08-21T05:10:51.657Z,98660.69
2022-08-21T05:12:53.946Z,98662.31
2022-08-21T05:14:55.486Z,98662.31
2022-08-21T05:16:57.198Z,98659.88
2022-08-21T05:18:59.625Z,98651.22
2022-08-21T05:21:01.077Z,98663.97
2022-08-21T05:23:09.143Z,98664.78
2022-08-21T05:25:11.736Z,98666.75
2022-08-21T05:27:14.754Z,98671.97
2022-08-21T05:29:20.071Z,98678.31
2022-08-21T05:31:21.616Z,98679.97
2022-08-21T05:33:23.687Z,98678.81
2022-08-21T05:35:25.910Z,98676.03
2022-08-21T05:37:27.453Z,98674.91
2022-08-21T05:39:29.201Z,98679.31
2022-08-21T05:41:51.301Z,98680.97
2022-08-21T05:43:52.846Z,98677.06
2022-08-21T05:45:54.449Z,98669.22
2022-08-21T05:47:56.045Z,98668.09
2022-08-21T05:49:58.078Z,98671.38
2022-08-21T05:52:00.020Z,98684.41
2022-08-21T05:54:01.756Z,98683.59
2022-08-21T05:56:05.126Z,98684.41
2022-08-21T05:58:06.786Z,98686.88
2022-08-21T06:00:13.515Z,98686.88
2022-08-21T06:02:15.072Z,98681.81
2022-08-21T06:04:17.372Z,98675.63
2022-08-21T06:06:18.954Z,98674.50
2022-08-21T06:08:21.798Z,98683.31
2022-08-21T06:10:23.268Z,98686.59
2022-08-21T06:12:25.758Z,98679.91
2022-08-21T06:14:27.576Z,98685.13
2022-08-21T06:16:30.600Z,98690.69
2022-08-21T06:18:32.458Z,98691.16
2022-08-21T06:20:34.265Z,98695.59
2022-08-21T06:24:37.341Z,98698.03
2022-08-21T06:26:39.712Z,98695.25
2022-08-21T06:28:42.134Z,98694.13
2022-08-21T06:30:43.753Z,98703.59
2022-08-21T06:32:45.347Z,98689.22
2022-08-21T06:34:47.049Z,98699.69
2022-08-21T06:38:51.777Z,98706.38
2022-08-21T06:40:53.567Z,98694.78
2022-08-21T06:42:55.309Z,98698.88
2022-08-21T06:44:58.489Z,98698.56
2022-08-21T06:47:00.085Z,98698.03
2022-08-21T06:49:01.832Z,98694.13
2022-08-21T06:51:03.797Z,98699.34
2022-08-21T06:53:12.906Z,98694.63
2022-08-21T06:55:21.579Z,98694.13
2022-08-21T06:57:26.530Z,98702.94
2022-08-21T06:59:28.288Z,98700.19
2022-08-21T07:01:30.138Z,98697.41
2022-08-21T07:03:38.076Z,98710.97
2022-08-21T07:05:39.939Z,98706.56
2022-08-21T07:07:41.854Z,98702.31
2022-08-21T07:09:43.712Z,98709.81
2022-08-21T07:11:50.414Z,98701.19
2022-08-21T07:13:54.963Z,98705.59
2022-08-21T07:16:01.629Z,98704.47
2022-08-21T07:18:06.215Z,98708.06
2022-08-21T07:20:08.462Z,98714.09
2022-08-21T07:22:10.140Z,98711.81
2022-08-21T07:24:12.925Z,98708.41
2022-08-21T07:26:19.139Z,98710.56
2022-08-21T07:28:20.915Z,98711.03
2022-08-21T07:30:23.728Z,98703.25
2022-08-21T07:32:25.677Z,98704.88
2022-08-21T07:34:27.286Z,98709.63
2022-08-21T07:36:29.044Z,98707.31
2022-08-21T07:38:30.801Z,98707.81
2022-08-21T07:40:32.496Z,98701.13
2022-08-21T07:42:34.306Z,98699.19
2022-08-21T07:44:35.873Z,98706.06
2022-08-21T07:46:37.505Z,98699.88
2022-08-21T07:48:39.514Z,98701.97
2022-08-21T07:50:42.333Z,98695.28
2022-08-21T07:52:44.595Z,98698.56
2022-08-21T07:54:46.228Z,98702.66
2022-08-21T07:56:47.963Z,98691.72
2022-08-21T07:58:49.853Z,98692.69
2022-08-21T08:00:51.853Z,98692.06
2022-08-21T08:02:54.960Z,98694.19
2022-08-21T08:05:04.709Z,98698.59
2022-08-21T08:07:06.505Z,98692.41
2022-08-21T08:09:08.457Z,98688.50
2022-08-21T08:11:12.052Z,98685.56
2022-08-21T08:13:15.651Z,98692.09
2022-08-21T08:15:20.986Z,98691.44
2022-08-21T08:17:24.255Z,98688.84
2022-08-21T08:19:26.072Z,98692.59
2022-08-21T08:21:28.475Z,98686.41
2022-08-21T08:23:31.478Z,98694.88
2022-08-21T08:25:36.678Z,98694.56
2022-08-21T08:27:39.012Z,98687.53
2022-08-21T08:29:40.838Z,98691.94
2022-08-21T08:31:42.673Z,98682.97
2022-08-21T08:33:44.303Z,98687.91
2022-08-21T08:35:49.287Z,98686.78
2022-08-21T08:37:52.436Z,98692.00
2022-08-21T08:39:54.676Z,98686.91
2022-08-21T08:42:32.310Z,98684.63
2022-08-21T08:44:30.543Z,98689.03
2022-08-21T08:46:51.513Z,98680.38
2022-08-21T08:49:04.377Z,98678.09
2022-08-21T08:51:14.517Z,98678.59
2022-08-21T08:53:23.188Z,98673.16
2022-08-21T08:55:29.714Z,98682.03
2022-08-21T08:57:33.246Z,98683.00
2022-08-21T08:59:43.787Z,98686.59
2022-08-21T09:01:48.727Z,98680.38
2022-08-21T09:03:52.978Z,98672.53
2022-08-21T09:06:34.134Z,98677.44
2022-08-21T09:08:59.907Z,98670.72
2022-08-21T09:11:15.344Z,98671.19
2022-08-21T09:13:25.038Z,98675.28
2022-08-21T09:15:34.383Z,98674.97
2022-08-21T09:18:15.159Z,98677.09
2022-08-21T09:20:29.172Z,98680.34
2022-08-21T09:22:53.351Z,98672.97
2022-08-21T09:25:09.337Z,98673.81
2022-08-21T09:27:14.618Z,98675.94
2022-08-21T09:29:21.610Z,98670.84
2022-08-21T09:31:30.787Z,98671.66
2022-08-21T09:33:32.533Z,98669.38
2022-08-21T09:35:36.259Z,98669.53
2022-08-21T09:37:52.838Z,98670.00
2022-08-21T09:39:54.570Z,98664.63
2022-08-21T09:42:05.309Z,98673.09
2022-08-21T09:44:09.307Z,98670.47
2022-08-21T09:46:21.287Z,98664.59
2022-08-21T09:48:26.961Z,98667.56
2022-08-21T09:50:29.122Z,98661.31
2022-08-21T09:52:31.927Z,98666.19
2022-08-21T09:54:39.922Z,98661.63
2022-08-21T09:57:16.630Z,98657.00
2022-08-21T09:59:27.524Z,98656.00
2022-08-21T10:01:29.361Z,98657.00
2022-08-21T10:03:31.240Z,98651.56
2022-08-21T10:05:33.213Z,98654.16
2022-08-21T10:07:38.287Z,98654.31
2022-08-21T10:09:41.014Z,98644.94
2022-08-21T10:12:00.701Z,98646.41
2022-08-21T10:14:11.468Z,98649.81
2022-08-21T10:16:23.026Z,98651.25
2022-08-21T10:18:40.452Z,98649.44
2022-08-21T10:20:49.007Z,98645.00
2022-08-21T10:23:19.937Z,98636.56
2022-08-21T10:25:31.818Z,98640.25
2022-08-21T10:27:52.357Z,98637.19
2022-08-21T10:30:02.718Z,98635.28
2022-08-21T10:32:26.358Z,98634.19
2022-08-21T10:34:55.613Z,98633.00
2022-08-21T10:37:10.469Z,98629.09
2022-08-21T10:39:36.135Z,98632.38
2022-08-21T10:41:59.386Z,98628.63
2022-08-21T10:44:24.883Z,98628.41
2022-08-21T10:46:57.020Z,98634.28
2022-08-21T10:49:13.243Z,98626.47
2022-08-21T10:51:29.544Z,98631.50
2022-08-21T10:53:45.853Z,98626.13
2022-08-21T10:55:57.759Z,98633.56
2022-08-21T10:58:05.203Z,98624.19
2022-08-21T11:00:13.104Z,98625.53
2022-08-21T11:02:23.517Z,98629.31
2022-08-21T11:05:00.394Z,98623.50
2022-08-21T11:07:17.111Z,98621.66
2022-08-21T11:09:22.740Z,98612.94
2022-08-21T11:11:35.912Z,98607.34
2022-08-21T11:13:46.964Z,98605.31
2022-08-21T11:16:01.599Z,98611.00
2022-08-21T11:18:15.558Z,98602.22
2022-08-21T11:20:29.755Z,98610.22
2022-08-21T11:22:41.903Z,98603.72
2022-08-21T11:25:04.000Z,98607.69
2022-08-21T11:27:25.484Z,98605.72
2022-08-21T11:29:40.597Z,98598.81
2022-08-21T11:32:10.491Z,98594.69
2022-08-21T11:34:21.071Z,98591.47
2022-08-21T11:36:33.648Z,98589.72
2022-08-21T11:38:41.295Z,98592.38
2022-08-21T11:41:06.562Z,98580.59
2022-08-21T11:43:34.328Z,98573.22
2022-08-21T11:45:53.131Z,98581.84
2022-08-21T11:48:17.723Z,98573.19
2022-08-21T11:50:34.136Z,98580.19
2022-08-21T11:53:04.905Z,98578.81
2022-08-21T11:55:27.610Z,98576.91
2022-08-21T11:57:40.078Z,98576.69
2022-08-21T11:59:52.234Z,98573.19
2022-08-21T12:01:55.544Z,98572.16
2022-08-21T12:04:09.322Z,98567.41
2022-08-21T12:06:24.082Z,98565.47
2022-08-21T12:08:36.785Z,98566.34
2022-08-21T12:10:43.415Z,98557.97
2022-08-21T12:12:45.820Z,98559.66
2022-08-21T12:14:53.608Z,98553.31
2022-08-21T12:17:07.253Z,98561.81
2022-08-21T12:19:21.409Z,98555.47
2022-08-21T12:21:28.510Z,98550.69
2022-08-21T12:23:52.889Z,98541.06
2022-08-21T12:26:26.253Z,98550.78
2022-08-21T12:28:30.012Z,98534.31
2022-08-21T12:30:38.894Z,98544.44
2022-08-21T12:32:43.936Z,98536.41
2022-08-21T12:35:07.872Z,98530.41
2022-08-21T12:37:25.937Z,98532.44
2022-08-21T12:39:34.626Z,98542.13
2022-08-21T12:41:49.196Z,98534.16
2022-08-21T12:44:08.082Z,98528.94
2022-08-21T12:46:19.612Z,98531.78
2022-08-21T12:48:27.268Z,98526.97
2022-08-21T12:50:47.004Z,98539.06
2022-08-21T12:53:18.547Z,98526.19
2022-08-21T12:55:29.188Z,98526.19
2022-08-21T12:57:31.615Z,98528.22
2022-08-21T12:59:37.386Z,98529.84
2022-08-21T13:01:46.977Z,98521.38
2022-08-21T13:04:04.300Z,98518.16
2022-08-21T13:06:07.667Z,98514.56
2022-08-21T13:08:13.490Z,98523.06
2022-08-21T13:10:23.503Z,98507.72
2022-08-21T13:12:32.331Z,98513.78
2022-08-21T13:14:48.301Z,98512.59
2022-08-21T13:16:55.279Z,98515.81
2022-08-21T13:19:04.988Z,98511.81
2022-08-21T13:21:15.887Z,98506.97
2022-08-21T13:23:29.825Z,98502.56
2022-08-21T13:25:36.709Z,98498.16
2022-08-21T13:27:38.342Z,98507.84
2022-08-21T13:29:40.123Z,98498.97
2022-08-21T13:31:58.921Z,98503.78
2022-08-21T13:34:00.655Z,98494.94
2022-08-21T13:36:05.127Z,98487.28
2022-08-21T13:38:07.076Z,98490.91
2022-08-21T13:40:15.894Z,98493.72
2022-08-21T13:42:17.843Z,98478.81
2022-08-21T13:44:32.324Z,98490.91
2022-08-21T13:46:36.805Z,98488.09
2022-08-21T13:48:39.351Z,98486.91
2022-08-21T13:50:42.373Z,98485.69
2022-08-21T13:53:06.034Z,98480.03
2022-08-21T13:55:18.300Z,98470.75
2022-08-21T13:57:30.010Z,98467.94
2022-08-21T13:59:34.632Z,98470.75
2022-08-21T14:01:54.239Z,98472.75
2022-08-21T14:04:02.898Z,98477.63
2022-08-21T14:06:32.245Z,98476.38
2022-08-21T14:08:36.995Z,98474.00
2022-08-21T14:10:45.360Z,98483.25
2022-08-21T14:12:56.036Z,98475.59
2022-08-21T14:14:58.920Z,98478.03
2022-08-21T14:17:23.960Z,98475.19
2022-08-21T14:19:38.858Z,98476.81
2022-08-21T14:21:47.069Z,98473.16
2022-08-21T14:24:21.033Z,98465.09
2022-08-21T14:26:24.349Z,98469.53
2022-08-21T14:28:29.450Z,98461.84
2022-08-21T14:30:34.645Z,98461.84
2022-08-21T14:32:44.748Z,98463.41
2022-08-21T14:34:47.680Z,98457.75
2022-08-21T14:36:52.830Z,98455.75
2022-08-21T14:38:54.676Z,98461.38
2022-08-21T14:41:03.629Z,98458.16
2022-08-21T14:43:05.267Z,98454.13
2022-08-21T14:45:15.698Z,98452.88
2022-08-21T14:47:18.118Z,98457.31
2022-08-21T14:49:22.924Z,98447.22
2022-08-21T14:51:25.011Z,98443.16
2022-08-21T14:53:26.583Z,98442.31
2022-08-21T14:55:28.600Z,98445.97
2022-08-21T14:57:31.725Z,98441.13
2022-08-21T14:59:37.028Z,98449.94
2022-08-21T15:01:42.270Z,98442.69
2022-08-21T15:03:46.803Z,98436.63
2022-08-21T15:05:49.627Z,98438.25
2022-08-21T15:07:51.171Z,98433.38
2022-08-21T15:09:53.012Z,98431.72
2022-08-21T15:11:59.477Z,98429.28
2022-08-21T15:14:05.408Z,98424.84
2022-08-21T15:16:10.325Z,98422.38
2022-08-21T15:18:17.993Z,98415.13
2022-08-21T15:20:22.305Z,98427.56
2022-08-21T15:22:28.110Z,98419.91
2022-08-21T15:24:31.055Z,98413.84
2022-08-21T15:26:35.477Z,98412.97
2022-08-21T15:28:40.520Z,98414.56
2022-08-21T15:30:43.254Z,98414.53
2022-08-21T15:32:47.917Z,98410.88
2022-08-21T15:34:51.129Z,98406.00
2022-08-21T15:36:57.123Z,98411.63
2022-08-21T15:39:01.802Z,98403.53
2022-08-21T15:41:05.385Z,98395.06
2022-08-21T15:43:08.104Z,98405.47
2022-08-21T15:45:13.830Z,98401.84
2022-08-21T15:47:18.802Z,98405.44
2022-08-21T15:49:20.710Z,98398.13
2022-08-21T15:51:22.441Z,98401.31
2022-08-21T15:53:24.218Z,98399.66
2022-08-21T15:55:28.564Z,98392.41
2022-08-21T15:57:30.419Z,98397.16
2022-08-21T15:59:40.479Z,98391.50
2022-08-21T16:01:44.612Z,98391.03
2022-08-21T16:03:50.777Z,98397.03
2022-08-21T16:05:53.892Z,98393.78
2022-08-21T16:07:55.713Z,98389.72
2022-08-21T16:09:57.445Z,98391.28
2022-08-21T16:12:01.194Z,98384.84
2022-08-21T16:14:02.753Z,98378.78
2022-08-21T16:16:05.817Z,98390.00
2022-08-21T16:18:07.597Z,98383.53
2022-08-21T16:20:13.080Z,98379.50
2022-08-21T16:22:15.044Z,98383.88
2022-08-21T16:24:16.682Z,98383.03
2022-08-21T16:26:18.739Z,98384.59
2022-08-21T16:28:21.686Z,98378.97
2022-08-21T16:30:24.546Z,98380.47
2022-08-21T16:32:32.874Z,98381.22
2022-08-21T16:34:35.672Z,98381.22
2022-08-21T16:36:37.443Z,98381.56
2022-08-21T16:38:44.890Z,98379.50
2022-08-21T16:40:46.859Z,98382.66
2022-08-21T16:42:48.829Z,98372.56
2022-08-21T16:44:50.847Z,98370.88
2022-08-21T16:46:52.876Z,98372.03
2022-08-21T16:48:55.013Z,98371.22
2022-08-21T16:50:58.435Z,98367.53
2022-08-21T16:53:03.953Z,98371.13
2022-08-21T16:55:06.356Z,98361.41
2022-08-21T16:57:08.076Z,98364.44
2022-08-21T16:59:11.597Z,98370.66
2022-08-21T17:01:16.371Z,98364.56
2022-08-21T17:03:21.840Z,98360.16
2022-08-21T17:05:23.464Z,98360.94
2022-08-21T17:07:25.626Z,98360.16
2022-08-21T17:09:27.248Z,98367.38
2022-08-21T17:11:38.932Z,98365.38
2022-08-21T17:13:40.726Z,98369.00
2022-08-21T17:15:43.143Z,98376.63
2022-08-21T17:17:44.752Z,98375.78
2022-08-21T17:19:46.612Z,98367.38
2022-08-21T17:21:48.537Z,98367.00
2022-08-21T17:23:50.262Z,98377.03
2022-08-21T17:25:55.403Z,98368.59
2022-08-21T17:27:57.607Z,98365.38
2022-08-21T17:29:59.511Z,98373.00
2022-08-21T17:32:04.015Z,98369.75
2022-08-21T17:34:05.733Z,98381.81
2022-08-21T17:36:08.413Z,98378.19
2022-08-21T17:38:11.648Z,98380.56
2022-08-21T17:40:17.485Z,98375.31
2022-08-21T17:42:19.413Z,98373.72
2022-08-21T17:44:21.785Z,98375.72
2022-08-21T17:46:37.364Z,98372.84
2022-08-21T17:48:39.232Z,98369.59
2022-08-21T17:50:40.865Z,98376.78
2022-08-21T17:52:46.130Z,98372.31
2022-08-21T17:54:47.590Z,98371.47
2022-08-21T17:56:50.007Z,98374.22
2022-08-21T17:58:52.189Z,98374.97
2022-08-21T18:00:57.585Z,98369.63
2022-08-21T18:03:13.913Z,98371.16
2022-08-21T18:05:15.522Z,98371.47
2022-08-21T18:07:31.294Z,98373.41
2022-08-21T18:09:34.486Z,98379.34
2022-08-21T18:11:37.698Z,98381.66
2022-08-21T18:13:40.252Z,98378.00
2022-08-21T18:15:45.953Z,98374.69
2022-08-21T18:17:52.267Z,98381.81
2022-08-21T18:19:54.439Z,98377.31
2022-08-21T18:21:58.771Z,98382.88
2022-08-21T18:24:02.101Z,98390.75
2022-08-21T18:26:07.329Z,98388.63
2022-08-21T18:28:11.367Z,98393.75
2022-08-21T18:30:17.199Z,98396.03
2022-08-21T18:32:30.681Z,98396.69
2022-08-21T18:34:41.246Z,98399.03
2022-08-21T18:36:45.839Z,98400.50
2022-08-21T18:38:47.403Z,98399.97
2022-08-21T18:40:55.764Z,98397.84
2022-08-21T18:42:59.961Z,98409.72
2022-08-21T18:45:03.786Z,98409.56
2022-08-21T18:47:12.307Z,98411.41
2022-08-21T18:49:14.266Z,98416.84
2022-08-21T18:51:16.375Z,98425.56
2022-08-21T18:53:27.539Z,98417.00
2022-08-21T18:55:30.191Z,98407.25
2022-08-21T18:57:32.224Z,98415.50
2022-08-21T18:59:34.452Z,98413.00
2022-08-21T19:01:36.313Z,98414.81
2022-08-21T19:03:38.163Z,98411.50
2022-08-21T19:05:46.294Z,98408.13
2022-08-21T19:07:50.145Z,98418.34
2022-08-21T19:10:24.586Z,98415.03
2022-08-21T19:12:20.631Z,98414.06
2022-08-21T19:14:23.032Z,98412.69
2022-08-21T19:16:30.361Z,98418.19
2022-08-21T19:18:35.596Z,98411.28
2022-08-21T19:20:41.452Z,98414.69
2022-08-21T19:22:42.954Z,98410.19
2022-08-21T19:24:55.302Z,98417.22
2022-08-21T19:26:57.405Z,98417.47
2022-08-21T19:29:03.751Z,98417.28
2022-08-21T19:31:16.347Z,98411.88
2022-08-21T19:33:25.872Z,98409.34
2022-08-21T19:35:27.593Z,98420.31
2022-08-21T19:37:29.387Z,98414.53
2022-08-21T19:39:33.723Z,98422.75
2022-08-21T19:41:38.724Z,98427.78
2022-08-21T19:43:52.292Z,98420.34
2022-08-21T19:45:56.514Z,98425.41
2022-08-21T19:47:58.702Z,98426.78
2022-08-21T19:50:03.725Z,98423.00
2022-08-21T19:52:19.247Z,98426.41
2022-08-21T19:54:33.279Z,98421.78
2022-08-21T19:56:34.950Z,98424.81
2022-08-21T19:58:40.229Z,98424.56
2022-08-21T20:00:44.021Z,98426.00
2022-08-21T20:02:47.941Z,98420.66
2022-08-21T20:07:12.103Z,98435.00
2022-08-21T20:09:16.221Z,98431.97
2022-08-21T20:11:25.920Z,98423.81
2022-08-21T20:13:33.612Z,98426.84
2022-08-21T20:15:36.321Z,98429.06
2022-08-21T20:17:39.061Z,98432.91
2022-08-21T20:19:43.729Z,98427.94
2022-08-21T20:21:45.597Z,98420.59
2022-08-21T20:26:10.833Z,98428.97
2022-08-21T20:28:13.690Z,98432.81
2022-08-21T20:30:22.653Z,98438.63
2022-08-21T20:32:24.561Z,98435.59
2022-08-21T20:34:28.168Z,98441.41
2022-08-21T20:36:29.838Z,98461.13
2022-08-21T20:38:31.688Z,98460.06
2022-08-21T20:40:34.300Z,98450.28
2022-08-21T20:42:48.324Z,98454.09
2022-08-21T20:44:50.209Z,98443.88
2022-08-21T20:46:52.498Z,98449.66
2022-08-21T20:48:57.163Z,98449.50
2022-08-21T20:51:27.928Z,98452.88
2022-08-21T20:53:43.698Z,98464.25
2022-08-21T20:55:48.735Z,98457.59
2022-08-21T20:58:05.776Z,98455.47
2022-08-21T21:00:20.578Z,98452.22
2022-08-21T21:02:34.146Z,98449.19
2022-08-21T21:04:51.620Z,98446.22
2022-08-21T21:06:58.878Z,98446.13
2022-08-21T21:09:19.064Z,98439.94
2022-08-21T21:11:33.615Z,98448.97
2022-08-21T21:16:13.861Z,98449.72
2022-08-21T21:18:30.656Z,98457.13
2022-08-21T21:20:39.906Z,98455.84
2022-08-21T21:22:57.363Z,98457.22
2022-08-21T21:25:19.553Z,98462.63
2022-08-21T21:27:48.921Z,98458.41
2022-08-21T21:30:02.679Z,98465.44
2022-08-21T21:32:05.845Z,98468.94
2022-08-21T21:34:07.747Z,98473.22
2022-08-21T21:36:30.716Z,98475.38
2022-08-21T21:38:53.712Z,98474.06
2022-08-21T21:41:30.175Z,98474.28
2022-08-21T21:43:56.425Z,98478.84
2022-08-21T21:46:13.556Z,98484.28
2022-08-21T21:48:36.391Z,98478.56
2022-08-21T21:51:29.951Z,98479.88
2022-08-21T21:53:57.321Z,98484.50
2022-08-21T21:56:06.560Z,98477.81
2022-08-21T21:58:28.845Z,98484.03
2022-08-21T22:00:33.945Z,98486.34
2022-08-21T22:02:45.488Z,98487.00
2022-08-21T22:05:03.781Z,98486.06
2022-08-21T22:07:18.738Z,98488.22
2022-08-21T22:09:41.001Z,98484.13
2022-08-21T22:11:55.516Z,98492.31
2022-08-21T22:14:15.399Z,98477.47
2022-08-21T22:16:18.486Z,98484.50
2022-08-21T22:18:35.272Z,98489.88
2022-08-21T22:21:02.631Z,98484.50
2022-08-21T22:25:37.795Z,98485.34
2022-08-21T22:27:41.378Z,98494.34
2022-08-21T22:29:57.797Z,98495.81
2022-08-21T22:32:10.401Z,98494.03
2022-08-21T22:34:21.264Z,98499.09
2022-08-21T22:36:24.287Z,98495.00
2022-08-21T22:38:36.892Z,98494.03
2022-08-21T22:40:41.329Z,98493.88
2022-08-21T22:42:43.097Z,98505.66
2022-08-21T22:45:04.713Z,98493.56
2022-08-21T22:47:18.586Z,98500.59
2022-08-21T22:49:29.435Z,98502.41
2022-08-21T22:51:43.323Z,98495.06
2022-08-21T22:53:53.641Z,98506.50
2022-08-21T22:56:01.133Z,98508.78
2022-08-21T22:58:05.459Z,98502.25
2022-08-21T23:00:13.576Z,98510.91
2022-08-21T23:02:42.155Z,98516.31
2022-08-21T23:04:49.636Z,98513.03
2022-08-21T23:06:56.454Z,98508.16
2022-08-21T23:09:00.561Z,98510.41
2022-08-21T23:11:12.733Z,98522.19
2022-08-21T23:13:19.094Z,98516.94
2022-08-21T23:15:21.216Z,98522.00
2022-08-21T23:17:38.262Z,98505.19
2022-08-21T23:19:57.777Z,98515.31
2022-08-21T23:22:21.201Z,98517.59
2022-08-21T23:24:50.751Z,98527.69
2022-08-21T23:27:21.328Z,98521.16
2022-08-21T23:29:48.686Z,98519.03
2022-08-21T23:32:35.517Z,98521.97
2022-08-21T23:35:19.941Z,98520.47
2022-08-21T23:37:51.698Z,98522.75
2022-08-21T23:40:18.705Z,98512.63
2022-08-21T23:42:52.606Z,98510.50
2022-08-21T23:45:32.942Z,98520.28
2022-08-21T23:47:43.933Z,98512.13
2022-08-21T23:50:33.898Z,98510.81
2022-08-21T23:52:48.462Z,98512.28
2022-08-21T23:55:03.793Z,98514.56
2022-08-21T23:57:38.066Z,98515.19
2022-08-21T23:59:59.943Z,98519.44
